Terminal Aerodrome Forecast
Issued by NWS Brownsville, TX

Home | Current Version | Previous Version | Text Only | Print | Product List | Glossary On
Versions: 1 2 3 4 5 6 7 8 9 10 11 12 13 14 15 16 17 18 19
000
FTUS44 KBRO 071359 AAB
TAFMFE
TAF AMD
KMFE 071359Z 0714/0812 14018G26KT P6SM SCT013
     FM072000 15022G30KT P6SM SCT040
     FM080200 16018G22KT P6SM FEW250=

USA.gov is the U.S. government's official web portal to all federal, state and local government web resources and services.